createdAt,value
2023-05-10T00:00:50.146Z,92.76
2023-05-10T00:01:50.163Z,96.16
2023-05-10T00:02:50.371Z,97.67
2023-05-10T00:03:50.390Z,91.81
2023-05-10T00:04:50.428Z,93.80
2023-05-10T00:05:50.488Z,88.60
2023-05-10T00:06:50.443Z,88.77
2023-05-10T00:07:50.521Z,97.51
2023-05-10T00:08:50.540Z,95.24
2023-05-10T00:09:50.674Z,91.67
2023-05-10T00:10:50.670Z,93.24
2023-05-10T00:11:50.734Z,93.54
2023-05-10T00:12:50.844Z,92.71
2023-05-10T00:13:50.886Z,90.03
2023-05-10T00:14:50.888Z,92.61
2023-05-10T00:15:51.015Z,94.76
2023-05-10T00:16:51.101Z,98.68
2023-05-10T00:17:51.134Z,94.19
2023-05-10T00:18:51.183Z,95.07
2023-05-10T00:19:51.202Z,96.03
2023-05-10T00:20:51.304Z,93.93
2023-05-10T00:21:51.332Z,92.02
2023-05-10T00:22:51.371Z,94.76
2023-05-10T00:23:51.432Z,93.40
2023-05-10T00:24:51.498Z,91.88
2023-05-10T00:25:51.557Z,93.58
2023-05-10T00:26:51.622Z,95.42
2023-05-10T00:27:51.662Z,93.21
2023-05-10T00:28:51.698Z,94.19
2023-05-10T00:29:51.767Z,92.28
2023-05-10T00:30:51.815Z,91.07
2023-05-10T00:31:52.095Z,91.13
2023-05-10T00:32:52.002Z,91.63
2023-05-10T00:33:52.004Z,93.49
2023-05-10T00:34:52.037Z,96.30
2023-05-10T00:35:52.109Z,102.19
2023-05-10T00:36:52.221Z,100.84
2023-05-10T00:37:52.200Z,97.22
2023-05-10T00:38:52.302Z,91.39
2023-05-10T00:39:52.348Z,91.58
2023-05-10T00:40:52.424Z,94.41
2023-05-10T00:41:52.487Z,93.25
2023-05-10T00:42:52.514Z,93.56
2023-05-10T00:43:53.026Z,88.60
2023-05-10T00:44:52.702Z,93.15
2023-05-10T00:45:52.787Z,86.72
2023-05-10T00:46:52.750Z,94.39
2023-05-10T00:47:52.835Z,94.24
2023-05-10T00:48:52.886Z,91.26
2023-05-10T00:49:52.964Z,93.36
2023-05-10T00:50:53.030Z,89.18
2023-05-10T00:51:53.088Z,95.83
2023-05-10T00:52:53.127Z,96.00
2023-05-10T00:53:53.215Z,94.81
2023-05-10T00:54:53.270Z,96.83
2023-05-10T00:55:53.354Z,99.22
2023-05-10T00:56:53.429Z,95.18
2023-05-10T00:57:53.418Z,97.08
2023-05-10T00:58:53.497Z,94.64
2023-05-10T00:59:53.595Z,94.15
2023-05-10T01:00:53.610Z,92.28
2023-05-10T01:01:53.675Z,100.94
2023-05-10T01:02:53.837Z,98.11
2023-05-10T01:03:53.821Z,94.69
2023-05-10T01:04:53.915Z,90.20
2023-05-10T01:05:53.933Z,93.56
2023-05-10T01:06:53.992Z,94.62
2023-05-10T01:07:54.112Z,97.53
2023-05-10T01:08:54.213Z,94.62
2023-05-10T01:09:54.165Z,94.07
2023-05-10T01:10:54.304Z,98.72
2023-05-10T01:11:54.312Z,90.51
2023-05-10T01:12:54.346Z,93.15
2023-05-10T01:13:54.421Z,99.34
2023-05-10T01:29:26.947Z,25.00
2023-05-10T01:30:26.968Z,25.00
2023-05-10T01:31:26.651Z,25.00
2023-05-10T01:32:26.662Z,25.00
2023-05-10T01:33:26.979Z,25.00
2023-05-10T01:34:26.613Z,25.00
2023-05-10T01:35:26.580Z,25.00
2023-05-10T01:36:26.573Z,24.55
2023-05-10T01:37:26.577Z,25.00
2023-05-10T01:38:26.594Z,25.64
2023-05-10T01:39:26.570Z,25.86
2023-05-10T01:40:26.523Z,26.23
2023-05-10T01:41:26.516Z,24.95
2023-05-10T01:42:26.556Z,25.93
2023-05-10T01:43:26.602Z,25.76
2023-05-10T01:44:26.517Z,25.00
2023-05-10T01:45:26.494Z,28.51
2023-05-10T01:46:26.564Z,28.21
2023-05-10T01:47:26.518Z,27.45
2023-05-10T01:48:26.570Z,28.55
2023-05-10T01:49:26.505Z,26.07
2023-05-10T01:50:26.494Z,30.24
2023-05-10T01:51:26.468Z,26.73
2023-05-10T01:52:26.477Z,28.27
2023-05-10T01:53:26.494Z,28.09
2023-05-10T01:54:26.462Z,26.33
2023-05-10T01:55:26.438Z,26.12
2023-05-10T01:56:26.434Z,27.45
2023-05-10T01:57:26.430Z,28.09
2023-05-10T01:58:26.444Z,28.61
2023-05-10T01:59:26.515Z,27.89
2023-05-10T02:00:26.557Z,25.42
2023-05-10T02:01:26.616Z,28.22
2023-05-10T02:02:26.726Z,29.45
2023-05-10T02:03:26.779Z,31.24
2023-05-10T02:04:26.809Z,29.99
2023-05-10T02:05:26.859Z,28.55
2023-05-10T02:06:26.905Z,30.27
2023-05-10T02:07:27.013Z,28.01
2023-05-10T02:08:27.048Z,30.89
2023-05-10T02:09:27.127Z,26.56
2023-05-10T02:10:27.180Z,27.60
2023-05-10T02:11:27.253Z,26.19
2023-05-10T02:12:27.311Z,30.47
2023-05-10T02:13:27.393Z,28.45
2023-05-10T02:14:27.432Z,29.49
2023-05-10T02:15:27.485Z,29.25
2023-05-10T02:16:27.607Z,29.10
2023-05-10T02:17:27.623Z,30.73
2023-05-10T02:18:27.673Z,29.37
2023-05-10T02:19:27.737Z,32.78
2023-05-10T02:20:27.847Z,27.84
2023-05-10T02:21:27.836Z,27.96
2023-05-10T02:22:27.924Z,31.10
2023-05-10T02:23:27.980Z,26.23
2023-05-10T02:24:28.051Z,30.57
2023-05-10T02:25:28.118Z,33.01
2023-05-10T02:26:28.208Z,30.64
2023-05-10T02:27:28.219Z,32.41
2023-05-10T02:28:28.296Z,31.52
2023-05-10T02:29:28.359Z,29.27
2023-05-10T02:30:28.406Z,31.63
2023-05-10T02:31:28.498Z,30.78
2023-05-10T02:32:28.580Z,31.78
2023-05-10T02:33:28.631Z,31.05
2023-05-10T02:34:28.697Z,30.16
2023-05-10T02:35:28.733Z,31.98
2023-05-10T02:36:28.785Z,32.63
2023-05-10T02:37:28.849Z,29.50
2023-05-10T02:38:28.927Z,29.83
2023-05-10T02:39:29.003Z,30.51
2023-05-10T02:40:29.074Z,28.88
2023-05-10T02:41:29.118Z,28.41
2023-05-10T02:42:29.213Z,28.45
2023-05-10T02:43:29.247Z,30.72
2023-05-10T02:44:29.296Z,33.21
2023-05-10T02:45:29.343Z,29.14
2023-05-10T02:46:29.479Z,28.61
2023-05-10T02:47:29.490Z,29.90
2023-05-10T02:48:29.574Z,33.95
2023-05-10T02:49:29.613Z,34.35
2023-05-10T02:50:29.658Z,29.91
2023-05-10T02:51:29.754Z,31.35
2023-05-10T02:52:29.779Z,31.78
2023-05-10T02:53:29.844Z,33.23
2023-05-10T02:54:29.920Z,29.42
2023-05-10T02:55:29.979Z,34.11
2023-05-10T02:56:30.028Z,31.09
2023-05-10T02:57:30.134Z,28.89
2023-05-10T02:58:30.239Z,30.33
2023-05-10T02:59:30.240Z,31.50
2023-05-10T03:00:30.276Z,32.13
2023-05-10T03:01:30.354Z,29.72
2023-05-10T03:02:30.439Z,31.93
2023-05-10T03:03:30.477Z,34.15
2023-05-10T03:04:30.519Z,32.08
2023-05-10T03:05:30.582Z,26.51
2023-05-10T03:06:30.676Z,25.90
2023-05-10T03:07:30.718Z,30.81
2023-05-10T03:08:30.821Z,28.46
2023-05-10T03:09:30.888Z,28.87
2023-05-10T03:10:30.955Z,31.22
2023-05-10T03:11:30.952Z,30.23
2023-05-10T03:12:31.064Z,29.46
2023-05-10T03:13:31.156Z,30.74
2023-05-10T03:14:31.216Z,30.87
2023-05-10T03:15:31.206Z,34.89
2023-05-10T03:16:31.342Z,31.65
2023-05-10T03:17:31.386Z,33.63
2023-05-10T03:18:31.399Z,31.45
2023-05-10T03:19:31.488Z,32.00
2023-05-10T03:20:31.513Z,30.15
2023-05-10T03:21:31.586Z,31.61
2023-05-10T03:22:31.657Z,30.70
2023-05-10T03:23:31.764Z,28.72
2023-05-10T03:24:31.760Z,32.77
2023-05-10T03:25:31.848Z,31.84
2023-05-10T03:26:31.933Z,32.53
2023-05-10T03:27:31.958Z,31.20
2023-05-10T03:28:32.010Z,32.11
2023-05-10T03:29:32.092Z,31.96
2023-05-10T03:30:32.157Z,32.26
2023-05-10T03:31:32.286Z,30.13
2023-05-10T03:32:32.288Z,34.94
2023-05-10T03:33:32.375Z,35.72
2023-05-10T03:34:32.431Z,32.67
2023-05-10T03:35:32.474Z,32.13
2023-05-10T03:36:32.570Z,30.88
2023-05-10T03:37:32.624Z,34.86
2023-05-10T03:38:32.653Z,36.13
2023-05-10T03:39:32.711Z,36.84
2023-05-10T03:40:32.783Z,36.25
2023-05-10T03:41:32.866Z,32.67
2023-05-10T03:42:32.893Z,34.94
2023-05-10T03:43:32.965Z,30.60
2023-05-10T03:44:33.507Z,33.81
2023-05-10T03:45:33.097Z,36.08
2023-05-10T03:46:33.166Z,34.47
2023-05-10T03:47:33.241Z,37.04
2023-05-10T03:48:33.275Z,36.55
2023-05-10T03:49:33.328Z,38.39
2023-05-10T03:50:33.366Z,38.03
2023-05-10T03:51:33.428Z,34.94
2023-05-10T03:52:33.518Z,37.34
2023-05-10T03:53:33.556Z,37.99
2023-05-10T03:54:33.614Z,38.36
2023-05-10T03:55:33.697Z,35.31
2023-05-10T03:56:33.748Z,35.30
2023-05-10T03:57:33.800Z,32.47
2023-05-10T03:58:33.870Z,36.79
2023-05-10T03:59:33.915Z,35.45
2023-05-10T04:00:34.003Z,32.44
2023-05-10T04:01:34.098Z,37.03
2023-05-10T04:02:34.255Z,33.64
2023-05-10T04:03:34.285Z,34.38
2023-05-10T04:04:34.213Z,35.86
2023-05-10T04:05:34.256Z,32.44
2023-05-10T04:06:34.396Z,32.53
2023-05-10T04:07:34.361Z,31.99
2023-05-10T04:08:34.408Z,37.72
2023-05-10T04:09:34.472Z,30.48
2023-05-10T04:10:34.523Z,33.42
2023-05-10T04:11:34.590Z,32.67
2023-05-10T04:12:34.666Z,34.26
2023-05-10T04:13:34.692Z,33.74
2023-05-10T04:14:35.026Z,31.87
2023-05-10T04:15:34.809Z,26.91
2023-05-10T04:16:34.920Z,31.44
2023-05-10T04:17:34.965Z,32.89
2023-05-10T04:18:35.022Z,28.08
2023-05-10T04:19:35.057Z,31.95
2023-05-10T04:20:35.116Z,28.66
2023-05-10T04:21:35.188Z,31.06
2023-05-10T04:22:35.257Z,33.83
2023-05-10T04:23:35.292Z,32.45
2023-05-10T04:24:35.373Z,30.33
2023-05-10T04:25:35.420Z,30.37
2023-05-10T04:26:35.488Z,32.06
2023-05-10T04:27:35.556Z,32.39
2023-05-10T04:28:35.594Z,31.50
2023-05-10T04:29:35.715Z,31.09
2023-05-10T04:30:35.718Z,29.27
2023-05-10T04:31:35.744Z,30.60
2023-05-10T04:32:35.838Z,32.10
2023-05-10T04:33:35.842Z,32.11
2023-05-10T04:34:35.895Z,27.99
2023-05-10T04:35:35.967Z,29.02
2023-05-10T04:36:36.010Z,27.82
2023-05-10T04:37:36.058Z,27.82
2023-05-10T04:38:36.147Z,31.05
2023-05-10T04:39:36.211Z,25.63
2023-05-10T04:40:36.220Z,30.69
2023-05-10T04:41:36.273Z,28.58
2023-05-10T04:42:36.305Z,29.56
2023-05-10T04:43:36.414Z,26.78
2023-05-10T04:44:36.466Z,28.12
2023-05-10T04:45:36.528Z,27.15
2023-05-10T04:46:36.590Z,28.06
2023-05-10T04:47:36.669Z,29.63
2023-05-10T04:48:36.635Z,29.69
2023-05-10T04:49:36.729Z,29.36
2023-05-10T04:50:36.774Z,30.00
2023-05-10T04:51:36.827Z,30.28
2023-05-10T04:52:36.862Z,30.50
2023-05-10T04:53:36.948Z,30.08
2023-05-10T04:54:37.000Z,30.12
2023-05-10T04:55:37.040Z,27.83
2023-05-10T04:56:37.079Z,30.43
2023-05-10T04:57:37.142Z,28.08
2023-05-10T04:58:37.203Z,32.30
2023-05-10T04:59:37.300Z,30.64
2023-05-10T05:00:37.310Z,31.57
2023-05-10T05:01:37.400Z,33.38
2023-05-10T05:02:37.508Z,30.05
2023-05-10T05:03:37.676Z,31.39
2023-05-10T05:04:37.493Z,28.44
2023-05-10T05:05:37.490Z,31.47
2023-05-10T05:06:37.555Z,31.13
2023-05-10T05:07:37.562Z,31.31
2023-05-10T05:08:37.641Z,32.01
2023-05-10T05:09:37.684Z,30.04
2023-05-10T05:10:37.699Z,31.84
2023-05-10T05:11:37.740Z,33.77
2023-05-10T05:12:37.783Z,31.14
2023-05-10T05:13:37.787Z,29.63
2023-05-10T05:14:37.861Z,27.42
2023-05-10T05:15:37.907Z,32.04
2023-05-10T05:16:37.969Z,30.00
2023-05-10T05:17:37.993Z,32.83
2023-05-10T05:18:37.986Z,28.78
2023-05-10T05:19:38.082Z,29.18
2023-05-10T05:20:38.067Z,29.86
2023-05-10T05:21:38.166Z,27.25
2023-05-10T05:22:38.165Z,28.20
2023-05-10T05:23:38.219Z,31.15
2023-05-10T05:24:38.305Z,33.86
2023-05-10T05:25:38.340Z,30.18
2023-05-10T05:26:38.383Z,27.06
2023-05-10T05:27:38.444Z,27.93
2023-05-10T05:28:38.496Z,30.10
2023-05-10T05:29:38.557Z,34.40
2023-05-10T05:30:38.597Z,34.08
2023-05-10T05:31:38.655Z,33.58
2023-05-10T05:32:38.713Z,33.15
2023-05-10T05:33:38.710Z,35.57
2023-05-10T05:34:38.696Z,29.54
2023-05-10T05:35:38.729Z,29.23
2023-05-10T05:36:38.822Z,31.79
2023-05-10T05:37:38.862Z,38.40
2023-05-10T05:38:38.873Z,42.35
2023-05-10T05:39:39.038Z,58.41
2023-05-10T05:40:39.011Z,73.30
2023-05-10T05:41:39.070Z,101.50
2023-05-10T05:42:39.124Z,126.25
2023-05-10T05:43:39.354Z,135.06
2023-05-10T05:44:39.345Z,157.43
2023-05-10T05:45:39.465Z,172.44
2023-05-10T05:46:39.378Z,179.96
2023-05-10T05:47:39.540Z,192.27
2023-05-10T05:48:39.451Z,198.41
2023-05-10T05:49:39.539Z,213.96
2023-05-10T05:50:39.569Z,219.35
2023-05-10T05:51:39.608Z,229.47
2023-05-10T05:52:39.654Z,240.19
2023-05-10T05:53:39.759Z,248.69
2023-05-10T05:54:40.142Z,250.00
2023-05-10T05:55:39.800Z,247.86
2023-05-10T05:56:39.830Z,250.00
2023-05-10T05:57:39.889Z,247.40
2023-05-10T05:58:39.959Z,250.09
2023-05-10T05:59:39.991Z,248.87
2023-05-10T06:00:40.113Z,248.99
2023-05-10T06:01:40.199Z,248.82
2023-05-10T06:02:40.307Z,251.56
2023-05-10T06:03:40.427Z,248.92
2023-05-10T06:04:41.562Z,250.00
2023-05-10T06:05:40.439Z,249.20
2023-05-10T06:06:40.510Z,248.56
2023-05-10T06:07:40.571Z,250.00
2023-05-10T06:08:40.595Z,248.82
2023-05-10T06:09:40.662Z,250.00
2023-05-10T06:10:40.689Z,248.30
2023-05-10T06:11:40.753Z,247.53
2023-05-10T06:12:40.765Z,249.57
2023-05-10T06:13:41.008Z,246.22
2023-05-10T06:14:40.872Z,246.96
2023-05-10T06:15:40.902Z,248.97
2023-05-10T06:16:40.972Z,246.25
2023-05-10T06:17:40.993Z,241.99
2023-05-10T06:18:40.979Z,242.67
2023-05-10T06:19:41.028Z,244.44
2023-05-10T06:20:41.050Z,242.51
2023-05-10T06:21:41.112Z,240.28
2023-05-10T06:22:41.118Z,238.29
2023-05-10T06:23:41.210Z,236.29
2023-05-10T06:24:41.259Z,237.08
2023-05-10T06:25:41.269Z,232.97
2023-05-10T06:26:41.297Z,234.04
2023-05-10T06:27:42.076Z,232.69
2023-05-10T06:28:41.336Z,230.74
2023-05-10T06:29:41.602Z,227.50
2023-05-10T06:30:41.490Z,227.87
2023-05-10T06:31:41.563Z,228.37
2023-05-10T06:32:41.497Z,225.09
2023-05-10T06:33:41.594Z,228.40
2023-05-10T06:34:41.559Z,225.98
2023-05-10T06:35:41.573Z,226.44
2023-05-10T06:36:41.627Z,223.17
2023-05-10T06:37:42.716Z,220.76
2023-05-10T06:38:41.740Z,224.59
2023-05-10T06:39:42.178Z,226.52
2023-05-10T06:40:41.712Z,220.41
2023-05-10T06:41:41.729Z,208.88
2023-05-10T06:42:41.791Z,202.44
2023-05-10T06:43:41.806Z,193.57
2023-05-10T06:44:42.101Z,189.86
2023-05-10T06:45:41.834Z,192.34
2023-05-10T06:46:41.969Z,190.92
2023-05-10T06:47:41.879Z,171.51
2023-05-10T06:48:41.890Z,169.21
2023-05-10T06:49:41.992Z,167.00
2023-05-10T06:50:41.959Z,165.54
2023-05-10T06:51:42.020Z,161.99
2023-05-10T06:52:42.094Z,159.64
2023-05-10T06:53:42.111Z,158.35
2023-05-10T06:54:42.133Z,151.60
2023-05-10T06:55:42.151Z,150.84
2023-05-10T06:56:42.214Z,147.94
2023-05-10T06:57:42.251Z,146.02
2023-05-10T06:58:42.514Z,140.79
2023-05-10T06:59:42.334Z,143.57
2023-05-10T07:00:42.396Z,146.16
2023-05-10T07:01:42.486Z,146.80
2023-05-10T07:02:42.555Z,147.45
2023-05-10T07:03:42.504Z,145.32
2023-05-10T07:04:42.572Z,147.20
2023-05-10T07:05:42.632Z,148.20
2023-05-10T07:06:42.586Z,156.16
2023-05-10T07:07:42.716Z,172.23
2023-05-10T07:08:42.674Z,174.74
2023-05-10T07:09:42.727Z,171.25
2023-05-10T07:10:42.816Z,165.39
2023-05-10T07:11:42.823Z,164.33
2023-05-10T07:12:42.990Z,167.31
2023-05-10T07:13:42.928Z,167.42
2023-05-10T07:14:43.297Z,169.45
2023-05-10T07:15:42.955Z,170.96
2023-05-10T07:16:43.063Z,169.59
2023-05-10T07:17:45.503Z,173.84
2023-05-10T07:18:43.065Z,175.16
2023-05-10T07:19:43.029Z,174.91
2023-05-10T07:20:43.002Z,175.98
2023-05-10T07:21:43.006Z,179.38
2023-05-10T07:22:43.088Z,183.38
2023-05-10T07:23:44.914Z,186.35
2023-05-10T07:24:42.962Z,186.53
2023-05-10T07:25:42.965Z,186.81
2023-05-10T07:26:43.061Z,188.00
2023-05-10T07:27:42.954Z,193.08
2023-05-10T07:28:42.953Z,199.88
2023-05-10T07:29:42.963Z,199.93
2023-05-10T07:30:43.109Z,193.19
2023-05-10T07:31:43.181Z,193.57
2023-05-10T07:32:43.143Z,164.80
2023-05-10T07:33:43.118Z,147.90
2023-05-10T07:34:43.643Z,139.37
2023-05-10T07:35:43.192Z,139.62
2023-05-10T07:36:43.372Z,143.59
2023-05-10T07:37:43.251Z,148.78
2023-05-10T07:38:43.283Z,152.73
2023-05-10T07:39:43.369Z,158.84
2023-05-10T07:40:43.368Z,161.41
2023-05-10T07:41:43.401Z,163.26
2023-05-10T07:42:43.444Z,167.12
2023-05-10T07:43:43.481Z,172.55
2023-05-10T07:44:43.529Z,174.80
2023-05-10T07:45:43.624Z,178.63
2023-05-10T07:46:43.555Z,185.71
2023-05-10T07:47:43.660Z,189.77
2023-05-10T07:48:43.705Z,196.83
2023-05-10T07:49:44.106Z,195.28
2023-05-10T07:50:43.661Z,225.71
2023-05-10T07:51:43.772Z,233.10
2023-05-10T07:52:43.702Z,241.20
2023-05-10T07:53:43.746Z,244.50
2023-05-10T07:54:44.623Z,244.72
2023-05-10T07:55:43.751Z,245.68
2023-05-10T07:56:43.780Z,250.00
2023-05-10T07:57:43.838Z,249.52
2023-05-10T07:58:43.811Z,248.42
2023-05-10T07:59:43.880Z,250.00
2023-05-10T08:00:43.909Z,250.00
2023-05-10T08:01:43.907Z,248.85
2023-05-10T08:02:44.005Z,250.00
2023-05-10T08:03:43.934Z,250.22
2023-05-10T08:04:44.081Z,250.00
2023-05-10T08:05:43.888Z,247.69
2023-05-10T08:06:43.949Z,250.01
2023-05-10T08:07:43.937Z,250.00
2023-05-10T08:08:43.924Z,249.88
2023-05-10T08:09:43.953Z,249.41
2023-05-10T08:10:43.995Z,249.07
2023-05-10T08:11:43.936Z,250.00
2023-05-10T08:12:43.992Z,249.07
2023-05-10T08:13:44.023Z,242.78
2023-05-10T08:14:43.992Z,225.78
2023-05-10T08:15:44.056Z,209.32
2023-05-10T08:16:44.008Z,204.64
2023-05-10T08:17:44.088Z,194.03
2023-05-10T08:18:44.034Z,179.22
2023-05-10T08:19:44.107Z,163.58
2023-05-10T08:20:44.054Z,150.64
2023-05-10T08:21:44.085Z,146.82
2023-05-10T08:22:44.110Z,147.95
2023-05-10T08:23:44.115Z,142.66
2023-05-10T08:24:44.153Z,137.67
2023-05-10T08:25:44.185Z,122.28
2023-05-10T08:26:44.251Z,114.28
2023-05-10T08:27:44.280Z,108.80
2023-05-10T08:28:44.266Z,110.19
2023-05-10T08:29:50.132Z,114.31
2023-05-10T08:30:45.253Z,114.61
2023-05-10T08:31:44.299Z,115.74
2023-05-10T08:32:44.331Z,116.24
2023-05-10T08:33:44.798Z,118.09
2023-05-10T08:34:44.264Z,123.62
2023-05-10T08:35:44.235Z,122.79
2023-05-10T08:36:44.356Z,124.79
2023-05-10T08:37:44.321Z,130.35
2023-05-10T08:38:44.381Z,130.29
2023-05-10T08:39:44.407Z,120.95
2023-05-10T08:40:44.424Z,119.48
2023-05-10T08:41:44.484Z,118.45
2023-05-10T08:42:44.534Z,116.40
2023-05-10T08:43:44.667Z,109.47
2023-05-10T08:44:44.569Z,98.64
2023-05-10T08:45:45.202Z,93.28
2023-05-10T08:46:44.737Z,82.58
2023-05-10T08:47:44.784Z,77.47
2023-05-10T08:48:44.789Z,74.85
2023-05-10T08:49:44.865Z,72.31
2023-05-10T08:50:45.199Z,73.62
2023-05-10T08:51:45.008Z,70.26
2023-05-10T08:52:45.070Z,65.90
2023-05-10T08:53:45.110Z,62.11
2023-05-10T08:54:45.163Z,63.02
2023-05-10T08:55:45.221Z,65.21
2023-05-10T08:56:45.639Z,66.78
2023-05-10T08:57:45.342Z,72.05
2023-05-10T08:58:45.430Z,77.94
2023-05-10T08:59:45.551Z,90.48
2023-05-10T09:00:45.780Z,118.49
2023-05-10T09:01:45.602Z,121.31
2023-05-10T09:02:45.695Z,132.32
2023-05-10T09:03:45.863Z,124.13
2023-05-10T09:04:45.981Z,124.56
2023-05-10T09:05:45.848Z,123.55
2023-05-10T09:06:45.965Z,125.85
2023-05-10T09:07:45.942Z,125.64
2023-05-10T09:08:46.027Z,126.94
2023-05-10T09:09:46.102Z,125.75
2023-05-10T09:10:46.131Z,128.42
2023-05-10T09:11:46.180Z,124.27
2023-05-10T09:12:46.176Z,122.48
2023-05-10T09:13:46.262Z,122.51
2023-05-10T09:14:46.242Z,118.39
2023-05-10T09:15:46.301Z,122.87
2023-05-10T09:16:46.354Z,122.87
2023-05-10T09:17:46.468Z,125.08
2023-05-10T09:18:46.557Z,126.63
2023-05-10T09:19:46.435Z,222.29
2023-05-10T09:20:46.504Z,219.73
2023-05-10T09:21:46.503Z,190.50
2023-05-10T09:22:46.546Z,162.68
2023-05-10T09:23:48.121Z,162.62
2023-05-10T09:24:46.637Z,143.83
2023-05-10T09:25:46.664Z,135.33
2023-05-10T09:26:46.733Z,126.03
2023-05-10T09:27:46.726Z,108.39
2023-05-10T09:28:46.776Z,92.80
2023-05-10T09:29:46.882Z,86.38
2023-05-10T09:30:46.939Z,88.61
2023-05-10T09:31:47.020Z,77.97
2023-05-10T09:32:47.101Z,65.27
2023-05-10T09:33:47.078Z,55.27
2023-05-10T09:34:47.195Z,53.91
2023-05-10T09:35:47.198Z,49.08
2023-05-10T09:36:47.236Z,55.52
2023-05-10T09:37:47.287Z,67.26
2023-05-10T09:38:50.188Z,74.75
2023-05-10T09:39:47.378Z,76.99
2023-05-10T09:40:47.353Z,77.68
2023-05-10T09:41:47.321Z,85.71
2023-05-10T09:42:47.326Z,98.46
2023-05-10T09:43:47.334Z,95.12
2023-05-10T09:44:47.317Z,86.84
2023-05-10T09:45:47.417Z,93.45
2023-05-10T09:46:47.321Z,98.00
2023-05-10T09:47:47.296Z,93.38
2023-05-10T09:48:47.390Z,92.48
2023-05-10T09:49:47.262Z,98.19
2023-05-10T09:50:47.682Z,100.72
2023-05-10T09:51:47.345Z,104.27
2023-05-10T09:52:47.325Z,101.20
2023-05-10T09:53:47.257Z,105.68
2023-05-10T09:54:47.281Z,106.72
2023-05-10T09:55:47.259Z,104.51
2023-05-10T09:56:47.257Z,106.16
2023-05-10T09:57:47.208Z,98.93
2023-05-10T09:58:47.269Z,83.42
2023-05-10T09:59:47.230Z,73.48
2023-05-10T10:00:47.214Z,68.61
2023-05-10T10:01:47.253Z,67.80
2023-05-10T10:02:47.284Z,61.03
2023-05-10T10:03:47.161Z,63.55
2023-05-10T10:04:47.218Z,61.20
2023-05-10T10:05:47.152Z,65.24
2023-05-10T10:06:47.162Z,68.96
2023-05-10T10:07:49.727Z,70.19
2023-05-10T10:08:47.423Z,69.96
2023-05-10T10:09:47.425Z,68.99
2023-05-10T10:10:47.700Z,72.11
2023-05-10T10:11:47.526Z,63.56
2023-05-10T10:12:47.584Z,78.08
2023-05-10T10:13:47.614Z,78.04
2023-05-10T10:14:47.681Z,78.92
2023-05-10T10:15:48.281Z,65.85
2023-05-10T10:17:04.940Z,57.95
2023-05-10T10:17:47.829Z,58.32
2023-05-10T10:18:47.802Z,60.77
2023-05-10T10:19:47.716Z,64.32
2023-05-10T10:20:47.837Z,70.40
2023-05-10T10:21:47.744Z,79.96
2023-05-10T10:22:47.735Z,82.87
2023-05-10T10:23:47.698Z,90.18
2023-05-10T10:24:47.681Z,108.97
2023-05-10T10:25:47.957Z,111.60
2023-05-10T10:26:47.707Z,114.41
2023-05-10T10:27:47.661Z,116.84
2023-05-10T10:28:47.680Z,117.64
2023-05-10T10:29:47.650Z,107.38
2023-05-10T10:30:47.669Z,102.61
2023-05-10T10:31:47.708Z,104.99
2023-05-10T10:32:47.760Z,108.52
2023-05-10T10:33:48.418Z,111.52
2023-05-10T10:34:47.828Z,100.19
2023-05-10T10:35:48.686Z,104.92
2023-05-10T10:36:47.894Z,106.64
2023-05-10T10:37:47.936Z,106.10
2023-05-10T10:38:47.920Z,114.13
2023-05-10T10:39:47.953Z,110.59
2023-05-10T10:40:48.052Z,114.59
2023-05-10T10:41:48.025Z,125.67
2023-05-10T10:42:48.077Z,123.58
2023-05-10T10:43:48.151Z,116.48
2023-05-10T10:44:48.157Z,108.20
2023-05-10T10:45:48.157Z,106.86
2023-05-10T10:46:48.303Z,104.75
2023-05-10T10:47:48.205Z,101.07
2023-05-10T10:48:48.217Z,106.53
2023-05-10T10:49:48.273Z,106.30
2023-05-10T10:50:48.305Z,104.18
2023-05-10T10:51:48.373Z,105.02
2023-05-10T10:52:48.395Z,98.55
2023-05-10T10:53:48.391Z,104.72
2023-05-10T10:54:48.484Z,98.74
2023-05-10T10:55:48.462Z,102.52
2023-05-10T10:56:48.515Z,104.54
2023-05-10T10:57:48.540Z,112.86
2023-05-10T10:58:48.577Z,107.66
2023-05-10T10:59:48.652Z,100.98
2023-05-10T11:00:48.745Z,111.85
2023-05-10T11:01:48.689Z,118.23
2023-05-10T11:02:48.818Z,118.10
2023-05-10T11:03:48.819Z,117.93
2023-05-10T11:04:48.785Z,119.08
2023-05-10T11:05:48.779Z,120.81
2023-05-10T11:06:48.807Z,124.61
2023-05-10T11:07:48.814Z,137.12
2023-05-10T11:08:48.853Z,162.71
2023-05-10T11:09:48.877Z,164.05
2023-05-10T11:10:49.006Z,159.34
2023-05-10T11:11:48.985Z,153.27
2023-05-10T11:12:48.982Z,158.65
2023-05-10T11:13:50.973Z,162.52
2023-05-10T11:14:49.129Z,165.44
2023-05-10T11:15:49.186Z,161.88
2023-05-10T11:16:49.137Z,161.33
2023-05-10T11:17:49.277Z,162.67
2023-05-10T11:18:50.354Z,166.20
2023-05-10T11:19:49.273Z,162.72
2023-05-10T11:20:49.255Z,164.37
2023-05-10T11:21:49.304Z,165.10
2023-05-10T11:22:49.315Z,171.91
2023-05-10T11:23:49.248Z,171.39
2023-05-10T11:24:50.201Z,174.01
2023-05-10T11:25:49.348Z,176.07
2023-05-10T11:26:49.324Z,178.78
2023-05-10T11:27:49.476Z,176.50
2023-05-10T11:28:49.378Z,182.03
2023-05-10T11:29:49.431Z,185.82
2023-05-10T11:30:49.432Z,184.99
2023-05-10T11:31:49.519Z,186.57
2023-05-10T11:32:49.494Z,186.86
2023-05-10T11:33:49.465Z,190.79
2023-05-10T11:34:49.500Z,193.78
2023-05-10T11:35:49.538Z,192.78
2023-05-10T11:36:49.537Z,190.27
2023-05-10T11:37:49.549Z,192.29
2023-05-10T11:38:49.629Z,192.65
2023-05-10T11:39:49.605Z,190.73
2023-05-10T11:40:49.652Z,191.29
2023-05-10T11:41:49.655Z,191.50
2023-05-10T11:42:49.710Z,192.31
2023-05-10T11:43:49.696Z,191.51
2023-05-10T11:44:49.736Z,192.49
2023-05-10T11:45:49.846Z,188.99
2023-05-10T11:46:49.912Z,190.79
2023-05-10T11:47:49.855Z,196.06
2023-05-10T11:48:49.851Z,195.52
2023-05-10T11:49:50.737Z,195.52
2023-05-10T11:50:49.892Z,193.40
2023-05-10T11:51:49.958Z,192.93
2023-05-10T11:52:49.993Z,191.26
2023-05-10T11:53:50.046Z,194.53
2023-05-10T11:54:50.018Z,196.25
2023-05-10T11:55:50.108Z,195.31
2023-05-10T11:56:50.096Z,197.35
2023-05-10T11:57:50.160Z,196.37
2023-05-10T11:58:50.138Z,198.21
2023-05-10T11:59:50.208Z,195.38
2023-05-10T12:00:50.234Z,195.69
2023-05-10T12:01:50.254Z,194.81
2023-05-10T12:02:50.386Z,192.97
2023-05-10T12:03:50.469Z,193.53
2023-05-10T12:04:50.375Z,194.86
2023-05-10T12:05:50.403Z,197.85
2023-05-10T12:06:50.443Z,198.09
2023-05-10T12:07:50.476Z,196.48
2023-05-10T12:08:50.522Z,196.89
2023-05-10T12:09:50.553Z,197.23
2023-05-10T12:10:50.620Z,195.13
2023-05-10T12:11:50.693Z,197.25
2023-05-10T12:12:50.674Z,195.12
2023-05-10T12:13:50.732Z,194.94
2023-05-10T12:14:50.741Z,197.00
2023-05-10T12:15:50.786Z,196.13
2023-05-10T12:16:50.863Z,197.51
2023-05-10T12:17:50.945Z,198.88
2023-05-10T12:18:50.923Z,195.96
2023-05-10T12:19:50.942Z,197.37
2023-05-10T12:20:51.014Z,198.79
2023-05-10T12:21:51.125Z,198.26
2023-05-10T12:22:51.077Z,197.01
2023-05-10T12:23:51.122Z,196.89
2023-05-10T12:24:51.165Z,196.30
2023-05-10T12:25:51.214Z,194.72
2023-05-10T12:26:51.276Z,195.25
2023-05-10T12:27:51.299Z,197.49
2023-05-10T12:28:51.365Z,196.70
2023-05-10T12:29:51.439Z,197.06
2023-05-10T12:30:51.462Z,197.06
2023-05-10T12:31:51.573Z,197.83
2023-05-10T12:32:51.624Z,198.72
2023-05-10T12:33:51.606Z,197.86
2023-05-10T12:34:51.666Z,196.57
2023-05-10T12:35:51.684Z,196.96
2023-05-10T12:36:51.746Z,196.35
2023-05-10T12:37:51.791Z,197.19
2023-05-10T12:38:51.915Z,196.29
2023-05-10T12:39:51.864Z,194.16
2023-05-10T12:40:51.960Z,195.45
2023-05-10T12:41:51.972Z,194.32
2023-05-10T12:42:52.033Z,196.96
2023-05-10T12:43:52.124Z,195.06
2023-05-10T12:44:52.130Z,196.18
2023-05-10T12:45:52.289Z,195.47
2023-05-10T12:46:52.207Z,196.27
2023-05-10T12:47:52.240Z,195.57
2023-05-10T12:48:57.565Z,195.68
2023-05-10T12:49:53.286Z,195.87
2023-05-10T12:50:52.327Z,195.98
2023-05-10T12:51:52.300Z,196.15
2023-05-10T12:52:52.325Z,196.37
2023-05-10T12:53:52.248Z,194.97
2023-05-10T12:54:52.254Z,194.22
2023-05-10T12:55:52.235Z,192.92